createdAt,value
2018-11-04T00:00:25.601Z,60.01
2018-11-04T00:02:53.245Z,60.43
2018-11-04T00:05:20.921Z,60.48
2018-11-04T00:07:49.716Z,60.58
2018-11-04T00:10:17.440Z,60.48
2018-11-04T00:12:45.117Z,59.96
2018-11-04T00:15:12.700Z,60.63
2018-11-04T00:17:40.537Z,60.22
2018-11-04T00:20:10.494Z,60.62
2018-11-04T00:22:39.223Z,60.42
2018-11-04T00:25:08.220Z,60.26
2018-11-04T00:27:35.828Z,60.17
2018-11-04T00:30:03.737Z,60.17
2018-11-04T00:32:39.526Z,60.33
2018-11-04T00:35:07.380Z,60.29
2018-11-04T00:37:34.960Z,60.70
2018-11-04T00:40:02.554Z,60.33
2018-11-04T00:42:30.208Z,60.59
2018-11-04T00:44:57.864Z,60.70
2018-11-04T00:47:25.458Z,60.61
2018-11-04T00:49:53.038Z,60.48
2018-11-04T00:52:20.640Z,60.14
2018-11-04T00:54:48.258Z,60.79
2018-11-04T00:57:15.890Z,60.92
2018-11-04T00:59:43.520Z,60.43
2018-11-04T01:02:11.121Z,60.32
2018-11-04T01:04:38.688Z,60.80
2018-11-04T01:07:06.357Z,60.32
2018-11-04T01:09:33.979Z,60.69
2018-11-04T01:12:01.609Z,60.51
2018-11-04T01:14:29.207Z,60.36
2018-11-04T01:16:56.852Z,60.29
2018-11-04T01:19:24.530Z,60.73
2018-11-04T01:21:52.336Z,60.85
2018-11-04T01:24:19.972Z,60.57
2018-11-04T01:26:47.588Z,61.03
2018-11-04T01:29:15.184Z,60.88
2018-11-04T01:31:42.810Z,60.54
2018-11-04T01:34:10.369Z,60.98
2018-11-04T01:36:37.996Z,60.34
2018-11-04T01:39:06.882Z,60.38
2018-11-04T01:41:34.526Z,60.88
2018-11-04T01:44:02.169Z,60.62
2018-11-04T01:46:29.799Z,60.88
2018-11-04T01:48:57.476Z,60.71
2018-11-04T01:51:25.102Z,60.26
2018-11-04T01:53:52.700Z,60.89
2018-11-04T01:56:20.352Z,60.45
2018-11-04T01:58:47.990Z,60.81
2018-11-04T02:01:15.570Z,60.34
2018-11-04T02:03:43.167Z,60.21
2018-11-04T02:06:10.780Z,60.63
2018-11-04T02:08:38.421Z,60.34
2018-11-04T02:11:06.075Z,60.69
2018-11-04T02:13:33.699Z,60.55
2018-11-04T02:16:01.349Z,60.76
2018-11-04T02:18:28.987Z,60.63
2018-11-04T02:20:56.584Z,60.90
2018-11-04T02:23:24.150Z,60.71
2018-11-04T02:25:51.784Z,60.16
2018-11-04T02:28:19.391Z,60.24
2018-11-04T02:30:47.083Z,60.02
2018-11-04T02:33:14.708Z,60.26
2018-11-04T02:35:42.380Z,60.66
2018-11-04T02:38:09.975Z,60.59
2018-11-04T02:40:37.584Z,60.46
2018-11-04T02:43:05.203Z,60.08
2018-11-04T02:45:32.854Z,60.49
2018-11-04T02:48:00.459Z,60.59
2018-11-04T02:50:28.043Z,60.83
2018-11-04T02:52:56.145Z,60.53
2018-11-04T02:55:23.843Z,60.48
2018-11-04T02:57:51.529Z,60.14
2018-11-04T03:00:19.134Z,60.69
2018-11-04T03:02:46.691Z,60.71
2018-11-04T03:05:14.378Z,60.33
2018-11-04T03:07:42.574Z,60.60
2018-11-04T03:10:11.274Z,60.22
2018-11-04T03:12:39.132Z,60.53
2018-11-04T03:15:06.752Z,60.50
2018-11-04T03:17:34.381Z,60.06
2018-11-04T03:20:02.051Z,60.76
2018-11-04T03:22:29.722Z,60.16
2018-11-04T03:24:57.321Z,60.01
2018-11-04T03:27:24.995Z,60.09
2018-11-04T03:29:52.584Z,60.09
2018-11-04T03:32:20.329Z,60.28
2018-11-04T03:34:47.864Z,60.64
2018-11-04T03:37:15.526Z,60.14
2018-11-04T03:39:43.129Z,60.20
2018-11-04T03:42:10.743Z,60.78
2018-11-04T03:44:38.356Z,60.62
2018-11-04T03:47:05.976Z,60.10
2018-11-04T03:49:33.596Z,60.53
2018-11-04T03:52:01.233Z,60.06
2018-11-04T03:54:28.844Z,60.03
2018-11-04T03:56:56.428Z,60.47
2018-11-04T03:59:24.145Z,60.70
2018-11-04T04:01:51.731Z,60.72
2018-11-04T04:04:19.390Z,60.27
2018-11-04T04:06:46.963Z,60.22
2018-11-04T04:09:14.630Z,60.16
2018-11-04T04:11:42.246Z,60.42
2018-11-04T04:14:09.871Z,60.18
2018-11-04T04:16:37.492Z,60.34
2018-11-04T04:19:05.153Z,60.15
2018-11-04T04:21:32.712Z,60.14
2018-11-04T04:24:00.369Z,60.61
2018-11-04T04:26:27.943Z,60.11
2018-11-04T04:28:55.623Z,60.70
2018-11-04T04:31:23.188Z,60.25
2018-11-04T04:33:50.769Z,60.07
2018-11-04T04:36:18.392Z,60.06
2018-11-04T04:38:45.982Z,60.21
2018-11-04T04:41:13.595Z,60.38
2018-11-04T04:43:41.195Z,59.88
2018-11-04T04:46:08.899Z,60.13
2018-11-04T04:48:36.540Z,60.16
2018-11-04T04:51:04.308Z,59.79
2018-11-04T04:53:31.946Z,60.34
2018-11-04T04:55:59.559Z,60.29
2018-11-04T04:58:27.205Z,60.42
2018-11-04T05:00:54.842Z,59.98
2018-11-04T05:03:22.916Z,59.62
2018-11-04T05:05:50.479Z,60.13
2018-11-04T05:08:18.120Z,60.03
2018-11-04T05:10:45.693Z,60.00
2018-11-04T05:13:13.335Z,59.94
2018-11-04T05:15:40.961Z,59.56
2018-11-04T05:18:08.543Z,59.54
2018-11-04T05:20:36.487Z,59.53
2018-11-04T05:23:04.072Z,59.90
2018-11-04T05:25:31.656Z,59.93
2018-11-04T05:27:59.244Z,59.73
2018-11-04T05:30:26.876Z,59.41
2018-11-04T05:32:54.469Z,59.19
2018-11-04T05:35:22.066Z,59.32
2018-11-04T05:37:49.743Z,59.64
2018-11-04T05:40:17.329Z,59.71
2018-11-04T05:42:45.065Z,59.29
2018-11-04T05:45:12.663Z,59.75
2018-11-04T05:47:40.315Z,59.57
2018-11-04T05:50:07.885Z,59.49
2018-11-04T05:52:35.907Z,59.02
2018-11-04T05:55:03.575Z,59.19
2018-11-04T05:57:31.172Z,59.04
2018-11-04T05:59:58.812Z,58.84
2018-11-04T06:02:26.551Z,59.08
2018-11-04T06:04:54.256Z,59.10
2018-11-04T06:07:21.856Z,59.37
2018-11-04T06:09:49.571Z,59.35
2018-11-04T06:12:17.173Z,59.15
2018-11-04T06:14:44.818Z,58.96
2018-11-04T06:17:12.401Z,58.95
2018-11-04T06:19:40.087Z,59.35
2018-11-04T06:22:07.708Z,59.23
2018-11-04T06:24:35.316Z,58.87
2018-11-04T06:27:02.951Z,58.70
2018-11-04T06:29:30.570Z,59.29
2018-11-04T06:31:58.213Z,58.74
2018-11-04T06:34:25.805Z,59.14
2018-11-04T06:36:53.440Z,58.94
2018-11-04T06:39:21.041Z,58.53
2018-11-04T06:41:48.647Z,58.55
2018-11-04T06:44:16.324Z,58.42
2018-11-04T06:46:43.896Z,58.45
2018-11-04T06:49:12.449Z,58.37
2018-11-04T06:51:40.067Z,58.34
2018-11-04T06:54:07.673Z,58.60
2018-11-04T06:56:35.348Z,58.68
2018-11-04T06:59:02.961Z,58.41
2018-11-04T07:01:30.610Z,58.78
2018-11-04T07:04:24.115Z,58.09
2018-11-04T07:06:51.718Z,58.51
2018-11-04T07:09:19.379Z,58.50
2018-11-04T07:11:47.880Z,57.92
2018-11-04T07:14:15.758Z,58.50
2018-11-04T07:16:43.866Z,58.45
2018-11-04T07:19:11.860Z,58.49
2018-11-04T07:21:39.469Z,58.32
2018-11-04T07:24:07.085Z,57.91
2018-11-04T07:26:35.465Z,57.88
2018-11-04T07:29:03.121Z,58.16
2018-11-04T07:31:30.814Z,57.62
2018-11-04T07:33:58.409Z,58.20
2018-11-04T07:36:26.104Z,57.46
2018-11-04T07:38:53.737Z,58.03
2018-11-04T07:41:21.333Z,57.52
2018-11-04T07:43:49.182Z,57.52
2018-11-04T07:46:17.229Z,57.24
2018-11-04T07:48:45.258Z,57.89
2018-11-04T07:51:12.902Z,57.58
2018-11-04T07:53:40.555Z,56.96
2018-11-04T07:56:08.152Z,57.56
2018-11-04T07:58:35.772Z,57.79
2018-11-04T08:01:03.456Z,57.11
2018-11-04T08:03:31.137Z,57.65
2018-11-04T08:05:58.728Z,57.17
2018-11-04T08:08:26.323Z,57.04
2018-11-04T08:10:53.990Z,57.65
2018-11-04T08:13:21.664Z,57.35
2018-11-04T08:15:49.311Z,57.25
2018-11-04T08:18:16.916Z,57.04
2018-11-04T08:20:44.547Z,56.78
2018-11-04T08:23:12.201Z,57.04
2018-11-04T08:25:39.844Z,57.40
2018-11-04T08:28:07.921Z,57.40
2018-11-04T08:30:35.532Z,57.07
2018-11-04T08:33:03.141Z,56.66
2018-11-04T08:35:30.815Z,56.98
2018-11-04T08:37:58.441Z,57.04
2018-11-04T08:40:26.044Z,57.05
2018-11-04T08:42:53.688Z,57.07
2018-11-04T08:45:21.288Z,56.76
2018-11-04T08:47:49.017Z,56.83
2018-11-04T08:50:23.249Z,56.55
2018-11-04T08:52:50.864Z,56.77
2018-11-04T08:55:18.513Z,56.65
2018-11-04T08:57:46.141Z,56.56
2018-11-04T09:00:15.103Z,56.48
2018-11-04T09:02:43.578Z,56.36
2018-11-04T09:05:11.212Z,56.67
2018-11-04T09:07:38.919Z,56.67
2018-11-04T09:10:08.966Z,56.53
2018-11-04T09:12:36.648Z,56.43
2018-11-04T09:15:04.462Z,56.19
2018-11-04T09:17:32.032Z,56.27
2018-11-04T09:19:59.697Z,56.39
2018-11-04T09:22:27.383Z,56.69
2018-11-04T09:24:55.081Z,56.57
2018-11-04T09:27:22.651Z,56.52
2018-11-04T09:29:50.247Z,56.38
2018-11-04T09:32:17.891Z,56.01
2018-11-04T09:34:45.521Z,56.16
2018-11-04T09:37:13.108Z,56.35
2018-11-04T09:39:40.686Z,56.29
2018-11-04T09:42:08.353Z,56.30
2018-11-04T09:44:35.958Z,56.41
2018-11-04T09:47:03.552Z,56.19
2018-11-04T09:49:31.221Z,56.21
2018-11-04T09:51:58.916Z,56.06
2018-11-04T09:54:26.564Z,56.15
2018-11-04T09:56:54.244Z,55.91
2018-11-04T09:59:21.892Z,56.37
2018-11-04T10:01:49.451Z,55.87
2018-11-04T10:04:17.083Z,55.89
2018-11-04T10:06:44.727Z,55.73
2018-11-04T10:09:12.376Z,55.69
2018-11-04T10:11:40.087Z,55.69
2018-11-04T10:14:07.998Z,55.56
2018-11-04T10:16:35.843Z,55.77
2018-11-04T10:19:03.600Z,55.69
2018-11-04T10:21:31.180Z,55.52
2018-11-04T10:23:58.797Z,55.36
2018-11-04T10:26:26.439Z,55.64
2018-11-04T10:28:54.069Z,55.89
2018-11-04T10:31:21.660Z,55.69
2018-11-04T10:33:49.271Z,55.46
2018-11-04T10:36:16.994Z,55.49
2018-11-04T10:38:44.585Z,55.31
2018-11-04T10:41:12.278Z,55.71
2018-11-04T10:43:39.864Z,55.25
2018-11-04T10:46:07.492Z,55.13
2018-11-04T10:48:35.085Z,55.14
2018-11-04T10:51:02.813Z,55.27
2018-11-04T10:53:30.385Z,55.04
2018-11-04T10:55:58.132Z,54.94
2018-11-04T10:58:25.643Z,54.92
2018-11-04T11:00:58.869Z,54.86
2018-11-04T11:03:26.517Z,55.00
2018-11-04T11:05:54.137Z,54.54
2018-11-04T11:08:21.767Z,54.91
2018-11-04T11:10:49.437Z,54.95
2018-11-04T11:13:17.098Z,54.77
2018-11-04T11:15:44.711Z,54.88
2018-11-04T11:18:12.297Z,54.81
2018-11-04T11:20:39.984Z,54.88
2018-11-04T11:23:07.635Z,54.79
2018-11-04T11:25:35.272Z,54.74
2018-11-04T11:28:02.904Z,54.79
2018-11-04T11:30:30.549Z,54.83
2018-11-04T11:32:58.111Z,54.69
2018-11-04T11:35:25.810Z,54.74
2018-11-04T11:37:53.506Z,54.73
2018-11-04T11:40:21.096Z,54.75
2018-11-04T11:42:48.742Z,54.74
2018-11-04T11:45:16.369Z,54.71
2018-11-04T11:47:44.022Z,54.67
2018-11-04T11:50:11.660Z,54.73
2018-11-04T11:52:39.339Z,54.51
2018-11-04T11:55:07.463Z,54.61
2018-11-04T11:57:35.339Z,54.66
2018-11-04T12:00:03.193Z,54.62
2018-11-04T12:02:30.845Z,54.68
2018-11-04T12:04:58.447Z,54.51
2018-11-04T12:07:26.100Z,54.53
2018-11-04T12:09:53.685Z,54.44
2018-11-04T12:12:21.321Z,54.50
2018-11-04T12:14:48.956Z,54.61
2018-11-04T12:17:16.505Z,54.46
2018-11-04T12:19:44.229Z,54.45
2018-11-04T12:22:11.839Z,54.78
2018-11-04T12:24:39.448Z,54.60
2018-11-04T12:27:07.076Z,54.53
2018-11-04T12:29:34.761Z,54.76
2018-11-04T12:32:02.412Z,54.72
2018-11-04T12:34:30.057Z,54.81
2018-11-04T12:36:57.647Z,54.66
2018-11-04T12:39:25.288Z,54.68
2018-11-04T12:41:52.904Z,54.48
2018-11-04T12:44:20.499Z,54.63
2018-11-04T12:46:48.225Z,54.66
2018-11-04T12:49:15.867Z,54.78
2018-11-04T12:51:43.484Z,54.56
2018-11-04T12:54:11.118Z,54.63
2018-11-04T12:56:38.757Z,54.61
2018-11-04T12:59:06.388Z,54.65
2018-11-04T13:01:34.051Z,54.58
2018-11-04T13:04:01.676Z,54.51
2018-11-04T13:06:29.321Z,54.49
2018-11-04T13:08:56.958Z,54.54
2018-11-04T13:11:24.582Z,54.34
2018-11-04T13:13:52.235Z,54.85
2018-11-04T13:16:19.840Z,54.39
2018-11-04T13:18:47.505Z,54.27
2018-11-04T13:21:15.163Z,54.44
2018-11-04T13:23:42.819Z,54.36
2018-11-04T13:26:10.480Z,54.45
2018-11-04T13:28:38.033Z,54.39
2018-11-04T13:31:05.648Z,54.47
2018-11-04T13:33:33.291Z,54.33
2018-11-04T13:36:01.031Z,54.25
2018-11-04T13:38:28.636Z,54.30
2018-11-04T13:40:56.334Z,54.29
2018-11-04T13:43:24.058Z,54.34
2018-11-04T13:45:51.695Z,54.56
2018-11-04T13:48:19.573Z,54.40
2018-11-04T13:50:47.244Z,54.49
2018-11-04T13:53:14.856Z,54.45
2018-11-04T13:55:42.444Z,54.49
2018-11-04T13:58:10.118Z,54.61
2018-11-04T14:00:37.721Z,54.46
2018-11-04T14:03:05.494Z,54.45
2018-11-04T14:05:33.048Z,54.48
2018-11-04T14:08:00.771Z,54.46
2018-11-04T14:10:28.340Z,54.62
2018-11-04T14:12:56.122Z,54.48
2018-11-04T14:15:23.670Z,54.51
2018-11-04T14:17:51.305Z,54.35
2018-11-04T14:20:18.976Z,54.69
2018-11-04T14:22:46.577Z,54.45
2018-11-04T14:25:14.209Z,54.46
2018-11-04T14:27:41.792Z,54.62
2018-11-04T14:30:11.945Z,54.44
2018-11-04T14:32:39.585Z,54.49
2018-11-04T14:35:08.105Z,54.58
2018-11-04T14:37:36.052Z,54.44
2018-11-04T14:40:03.865Z,54.60
2018-11-04T14:42:31.528Z,54.61
2018-11-04T14:44:59.141Z,54.75
2018-11-04T14:47:26.747Z,54.79
2018-11-04T14:49:54.440Z,54.82
2018-11-04T14:52:22.025Z,54.64
2018-11-04T14:54:49.672Z,54.74
2018-11-04T14:57:17.300Z,54.60
2018-11-04T14:59:45.006Z,54.90
2018-11-04T15:02:12.614Z,54.92
2018-11-04T15:04:40.257Z,54.69
2018-11-04T15:07:08.182Z,54.71
2018-11-04T15:09:35.870Z,54.63
2018-11-04T15:12:03.495Z,54.74
2018-11-04T15:14:31.276Z,54.79
2018-11-04T15:16:58.849Z,54.93
2018-11-04T15:19:26.458Z,55.02
2018-11-04T15:21:54.070Z,54.75
2018-11-04T15:24:21.723Z,55.06
2018-11-04T15:26:49.314Z,54.78
2018-11-04T15:29:16.939Z,55.04
2018-11-04T15:31:44.619Z,55.01
2018-11-04T15:34:12.663Z,55.02
2018-11-04T15:36:40.268Z,54.88
2018-11-04T15:39:09.416Z,55.07
2018-11-04T15:41:37.057Z,55.00
2018-11-04T15:44:04.732Z,55.07
2018-11-04T15:46:32.454Z,55.29
2018-11-04T15:49:00.128Z,55.20
2018-11-04T15:51:27.651Z,55.13
2018-11-04T15:53:55.312Z,54.85
2018-11-04T15:56:23.035Z,55.51
2018-11-04T15:58:50.654Z,55.20
2018-11-04T16:01:18.225Z,55.23
2018-11-04T16:03:45.868Z,55.32
2018-11-04T16:06:13.528Z,55.12
2018-11-04T16:08:41.140Z,55.26
2018-11-04T16:11:08.844Z,55.33
2018-11-04T16:13:36.447Z,55.18
2018-11-04T16:16:04.576Z,55.37
2018-11-04T16:18:32.211Z,55.26
2018-11-04T16:20:59.833Z,55.24
2018-11-04T16:23:27.484Z,55.36
2018-11-04T16:25:55.120Z,55.47
2018-11-04T16:28:22.776Z,55.27
2018-11-04T16:30:50.409Z,55.43
2018-11-04T16:33:18.072Z,55.25
2018-11-04T16:35:45.710Z,55.30
2018-11-04T16:38:13.330Z,55.33
2018-11-04T16:40:40.927Z,55.28
2018-11-04T16:43:08.619Z,55.05
2018-11-04T16:45:36.243Z,55.14
2018-11-04T16:48:03.822Z,55.25
2018-11-04T16:50:31.441Z,55.10
2018-11-04T16:52:59.072Z,55.50
2018-11-04T16:55:26.776Z,55.23
2018-11-04T16:57:54.367Z,55.31
2018-11-04T17:00:22.011Z,55.21
2018-11-04T17:02:49.660Z,55.36
2018-11-04T17:05:17.343Z,55.26
2018-11-04T17:07:44.884Z,55.39
2018-11-04T17:10:12.536Z,55.08
2018-11-04T17:12:40.217Z,54.95
2018-11-04T17:15:09.727Z,54.89
2018-11-04T17:17:37.330Z,55.24
2018-11-04T17:20:08.748Z,54.97
2018-11-04T17:22:36.342Z,55.27
2018-11-04T17:25:04.492Z,55.27
2018-11-04T17:27:32.089Z,55.14
2018-11-04T17:29:59.794Z,55.44
2018-11-04T17:32:27.388Z,55.18
2018-11-04T17:34:55.026Z,55.39
2018-11-04T17:37:22.671Z,54.97
2018-11-04T17:39:50.284Z,55.22
2018-11-04T17:42:17.965Z,55.56
2018-11-04T17:44:45.648Z,55.50
2018-11-04T17:47:13.200Z,55.17
2018-11-04T17:49:40.975Z,55.01
2018-11-04T17:52:08.585Z,55.21
2018-11-04T17:54:36.212Z,55.28
2018-11-04T17:57:03.814Z,55.36
2018-11-04T17:59:31.451Z,55.14
2018-11-04T18:01:59.084Z,55.25
2018-11-04T18:04:26.709Z,55.48
2018-11-04T18:06:54.339Z,55.59
2018-11-04T18:09:21.967Z,55.25
2018-11-04T18:11:49.592Z,54.97
2018-11-04T18:14:17.197Z,55.33
2018-11-04T18:16:44.794Z,55.22
2018-11-04T18:19:12.469Z,55.09
2018-11-04T18:21:40.106Z,55.24
2018-11-04T18:24:07.833Z,55.27
2018-11-04T18:26:35.529Z,55.43
2018-11-04T18:29:03.154Z,55.05
2018-11-04T18:31:30.892Z,55.02
2018-11-04T18:33:58.525Z,55.22
2018-11-04T18:36:26.137Z,55.39
2018-11-04T18:38:53.795Z,55.19
2018-11-04T18:41:21.437Z,55.13
2018-11-04T18:43:49.216Z,55.25
2018-11-04T18:46:16.779Z,55.15
2018-11-04T18:48:44.406Z,55.26
2018-11-04T18:51:12.160Z,55.11
2018-11-04T18:53:40.083Z,55.10
2018-11-04T18:56:07.661Z,55.22
2018-11-04T18:58:35.290Z,55.06
2018-11-04T19:01:02.940Z,55.05
2018-11-04T19:03:30.562Z,55.10
2018-11-04T19:05:58.183Z,55.25
2018-11-04T19:08:25.768Z,55.42
2018-11-04T19:10:53.477Z,55.29
2018-11-04T19:13:21.101Z,55.28
2018-11-04T19:15:48.761Z,55.25
2018-11-04T19:18:16.371Z,55.15
2018-11-04T19:20:44.028Z,55.25
2018-11-04T19:23:11.685Z,55.07
2018-11-04T19:25:39.382Z,55.33
2018-11-04T19:28:07.019Z,55.37
2018-11-04T19:30:34.671Z,55.03
2018-11-04T19:33:02.300Z,55.27
2018-11-04T19:35:29.904Z,55.20
2018-11-04T19:37:57.582Z,55.32
2018-11-04T19:40:25.184Z,55.25
2018-11-04T19:42:52.905Z,55.10
2018-11-04T19:45:20.543Z,55.38
2018-11-04T19:47:48.171Z,55.02
2018-11-04T19:50:15.793Z,55.51
2018-11-04T19:52:43.430Z,55.38
2018-11-04T19:55:11.797Z,55.17
2018-11-04T19:57:39.432Z,55.00
2018-11-04T20:00:08.742Z,55.09
2018-11-04T20:02:36.348Z,55.08
2018-11-04T20:05:05.267Z,55.46
2018-11-04T20:07:32.975Z,55.32
2018-11-04T20:10:00.648Z,55.23
2018-11-04T20:12:33.917Z,55.03
2018-11-04T20:15:01.550Z,55.00
2018-11-04T20:17:29.151Z,55.22
2018-11-04T20:20:02.336Z,55.33
2018-11-04T20:22:29.872Z,55.26
2018-11-04T20:25:03.168Z,55.14
2018-11-04T20:27:30.812Z,55.23
2018-11-04T20:29:58.471Z,55.41
2018-11-04T20:32:31.692Z,55.17
2018-11-04T20:34:59.390Z,55.13
2018-11-04T20:37:27.102Z,55.47
2018-11-04T20:40:00.299Z,55.30
2018-11-04T20:42:27.967Z,55.30
2018-11-04T20:44:55.826Z,55.33
2018-11-04T20:47:27.838Z,55.27
2018-11-04T20:50:00.947Z,55.32
2018-11-04T20:52:28.681Z,55.71
2018-11-04T20:54:56.371Z,55.38
2018-11-04T20:57:29.665Z,55.31
2018-11-04T20:59:57.272Z,55.27
2018-11-04T21:02:25.092Z,55.14
2018-11-04T21:04:52.544Z,55.42
2018-11-04T21:07:20.228Z,55.65
2018-11-04T21:09:47.927Z,55.13
2018-11-04T21:12:15.556Z,55.36
2018-11-04T21:14:43.156Z,55.40
2018-11-04T21:17:10.804Z,55.41
2018-11-04T21:19:38.395Z,55.71
2018-11-04T21:22:08.945Z,55.16
2018-11-04T21:24:36.608Z,55.45
2018-11-04T21:27:04.776Z,55.59
2018-11-04T21:29:32.720Z,55.29
2018-11-04T21:32:00.032Z,55.23
2018-11-04T21:34:27.674Z,55.34
2018-11-04T21:36:55.326Z,55.37
2018-11-04T21:39:22.976Z,55.61
2018-11-04T21:41:50.637Z,55.59
2018-11-04T21:44:18.428Z,55.39
2018-11-04T21:46:45.981Z,55.67
2018-11-04T21:49:13.644Z,55.69
2018-11-04T21:51:41.234Z,55.87
2018-11-04T21:54:08.906Z,55.40
2018-11-04T21:56:36.643Z,55.84
2018-11-04T21:59:04.212Z,55.78
2018-11-04T22:01:31.842Z,55.60
2018-11-04T22:03:59.743Z,55.41
2018-11-04T22:06:27.234Z,55.49
2018-11-04T22:08:54.851Z,55.55
2018-11-04T22:11:22.428Z,55.37
2018-11-04T22:13:50.196Z,55.41
2018-11-04T22:16:17.748Z,55.48
2018-11-04T22:18:45.588Z,55.18
2018-11-04T22:21:13.245Z,55.46
2018-11-04T22:23:40.938Z,55.84
2018-11-04T22:26:08.548Z,55.32
2018-11-04T22:28:36.132Z,55.13
2018-11-04T22:31:03.834Z,55.43
2018-11-04T22:33:31.411Z,55.71
2018-11-04T22:35:59.089Z,55.68
2018-11-04T22:38:26.771Z,55.66
2018-11-04T22:40:54.349Z,55.17
2018-11-04T22:43:21.953Z,55.70
2018-11-04T22:45:49.607Z,55.75
2018-11-04T22:48:17.271Z,55.78
2018-11-04T22:50:44.884Z,55.72
2018-11-04T22:53:12.481Z,55.37
2018-11-04T22:55:40.149Z,55.21
2018-11-04T22:58:08.577Z,55.33
2018-11-04T23:00:42.322Z,55.46
2018-11-04T23:03:10.565Z,55.45
2018-11-04T23:05:38.247Z,55.00
2018-11-04T23:08:06.224Z,55.51
2018-11-04T23:10:34.013Z,55.50
2018-11-04T23:13:01.648Z,55.37
2018-11-04T23:15:29.401Z,55.58
2018-11-04T23:17:57.110Z,55.77
2018-11-04T23:20:24.785Z,55.36
2018-11-04T23:22:52.637Z,55.47
2018-11-04T23:25:20.282Z,55.82
2018-11-04T23:27:47.936Z,55.54
2018-11-04T23:30:16.836Z,55.57
2018-11-04T23:32:44.899Z,55.58
2018-11-04T23:35:12.723Z,55.29
2018-11-04T23:37:40.735Z,55.14
2018-11-04T23:40:08.928Z,55.51
2018-11-04T23:42:36.896Z,55.68
2018-11-04T23:45:05.168Z,55.51
2018-11-04T23:47:32.776Z,55.35
2018-11-04T23:50:00.451Z,55.13
2018-11-04T23:52:28.096Z,55.78
2018-11-04T23:54:55.705Z,55.86
2018-11-04T23:57:23.362Z,55.14
2018-11-04T23:59:51.090Z,55.17
